Dd Catherwood — CZ5502 — position and weather

sailwx.info

Track history (hours):
 
Tides and Currents Weather Stations Pressure Air Temp Water Temp Dewpoint Dewpoint Depression Visibility Wind Speed Wind Dir Waves Ship Positions

Dd Catherwood

Last reported at 2018-Feb-19 05:01 UTC. Time now 2018-Feb-19 10:07 UTC.
Position N 53°47' W 129°56'.

Length 21 m; draft 3.5 m.

Type: Towing. MMSI: 316006155.

Date/timePositionNaut miles runAvg speedWind from/ knotsBaromVisibWave heightAir tempDewpointWater temp
2018-Feb-19 05:01N 53°47' W 129°56'1 7.4
2018-Feb-19 04:53N 53°48' W 129°57'3 7.2
2018-Feb-19 04:30N 53°50' W 130°01'4 7.1
2018-Feb-19 04:01N 53°52' W 130°05'3 6.9
2018-Feb-19 03:30N 53°54' W 130°09'3 6.5
2018-Feb-19 03:00N 53°57' W 130°12'4 7.2
2018-Feb-19 02:30N 54°01' W 130°13'4 7.1
2018-Feb-19 02:01N 54°04' W 130°16'3 6.7
2018-Feb-19 01:31N 54°06' W 130°21'3 6.2
2018-Feb-19 01:00N 54°09' W 130°22'4 6.9
2018-Feb-19 00:29N 54°12' W 130°21'3 6.9
2018-Feb-19 00:00N 54°16' W 130°21'3 5.8
2018-Feb-18 23:27N 54°19' W 130°22'0 0.5
2018-Feb-18 23:00N 54°19' W 130°22'0 0.1
2018-Feb-18 22:23N 54°19' W 130°22'1 3.4
2018-Feb-18 22:00N 54°19' W 130°20'0 0.5
2018-Feb-18 21:31N 54°19' W 130°19'0 0.0
2018-Feb-18 21:00N 54°19' W 130°19'0 0.0
2018-Feb-18 20:31N 54°19' W 130°19'0 0.0
2018-Feb-18 20:00N 54°19' W 130°19'0 0.0
2018-Feb-18 19:30N 54°19' W 130°19'0 0.0
2018-Feb-18 19:00N 54°19' W 130°19'2 3.2
2018-Feb-18 18:31N 54°19' W 130°22'0 0.0
2018-Feb-18 18:00N 54°19' W 130°22'0 0.0
2018-Feb-18 17:30N 54°19' W 130°22'0 0.0
2018-Feb-18 17:01N 54°19' W 130°22'0 0.7
2018-Feb-18 16:30N 54°19' W 130°22'4 8.7
2018-Feb-18 16:00N 54°14' W 130°21'5 9.3
2018-Feb-18 15:30N 54°10' W 130°21'4 8.8
2018-Feb-18 15:00N 54°05' W 130°20'5 9.7
2018-Feb-18 14:30N 54°02' W 130°14'5 9.6
2018-Feb-18 14:00N 53°57' W 130°12'4 8.8
2018-Feb-18 13:30N 53°54' W 130°07'5 9.5
2018-Feb-18 13:00N 53°50' W 130°01'5 9.6
2018-Feb-18 12:30N 53°47' W 129°56'95 8.7
2018-Feb-18 01:33N 52°28' W 128°28'1 9.0
2018-Feb-18 01:30N 52°27' W 128°28'23 7.6
2018-Feb-17 22:32N 52°08' W 128°08'14 8.2
2018-Feb-17 20:47N 51°56' W 127°56'310.2
2018-Feb-17 20:28N 51°53' W 127°57'510.1
2018-Feb-17 20:01N 51°48' W 127°57'510.2
2018-Feb-17 19:31N 51°43' W 127°56'510.0
2018-Feb-17 19:00N 51°38' W 127°54'510.0
2018-Feb-17 18:31N 51°33' W 127°51'5 9.6
2018-Feb-17 18:00N 51°29' W 127°51'19 9.9
2018-Feb-17 16:03N 51°09' W 127°50'210.9
2018-Feb-17 15:54N 51°08' W 127°49'511.1
2018-Feb-17 15:30N 51°05' W 127°43'611.2
2018-Feb-17 15:00N 51°01' W 127°37'611.1
2018-Feb-17 14:30N 50°58' W 127°30'612.0
2018-Feb-17 14:00N 50°54' W 127°23'611.3
2018-Feb-17 13:30N 50°50' W 127°16'611.0
2018-Feb-17 12:59N 50°46' W 127°09'71 9.9
2018-Feb-17 05:48N 50°20' W 125°25'410.2
2018-Feb-17 05:27N 50°16' W 125°24'512.0
2018-Feb-17 05:01N 50°11' W 125°22'612.7
2018-Feb-17 04:30N 50°06' W 125°17'714.8
2018-Feb-17 04:00N 49°59' W 125°11'611.1
2018-Feb-17 03:29N 49°55' W 125°05'510.9
2018-Feb-17 03:00N 49°52' W 124°58'510.8
2018-Feb-17 02:30N 49°49' W 124°52'510.4
2018-Feb-17 02:00N 49°46' W 124°45'510.5
2018-Feb-17 01:30N 49°42' W 124°39'4510.5
2018-Feb-16 21:16N 49°21' W 123°39'310.8
2018-Feb-16 21:00N 49°20' W 123°35'510.5
2018-Feb-16 20:30N 49°18' W 123°27'510.5
2018-Feb-16 20:00N 49°16' W 123°20'510.0
2018-Feb-16 19:30N 49°14' W 123°13'5 9.2
2018-Feb-16 19:00N 49°12' W 123°06'2 2.2
2018-Feb-16 18:14N 49°12' W 123°04'0 0.0
2018-Feb-16 17:58N 49°12' W 123°04'0 0.0
2018-Feb-16 17:16N 49°12' W 123°04'0 0.0
2018-Feb-16 16:44N 49°12' W 123°04'0 0.0
2018-Feb-16 16:25N 49°12' W 123°04'0 0.0
2018-Feb-16 16:00N 49°12' W 123°04'0 0.0
2018-Feb-16 15:29N 49°12' W 123°04'0 0.0
2018-Feb-16 15:00N 49°12' W 123°04'0 0.0
2018-Feb-16 14:30N 49°12' W 123°04'0 0.0
2018-Feb-16 14:00N 49°12' W 123°04'0 0.0
2018-Feb-16 13:30N 49°12' W 123°04'2 4.5
2018-Feb-16 13:00N 49°12' W 123°01'2 3.8
2018-Feb-16 12:30N 49°11' W 122°58'2 3.8
2018-Feb-16 12:00N 49°12' W 122°55'1 1.9
2018-Feb-16 11:30N 49°11' W 122°55'3 6.1
2018-Feb-16 11:00N 49°09' W 122°59'3 6.5
2018-Feb-16 10:30N 49°08' W 123°04'3 6.6
2018-Feb-16 10:00N 49°07' W 123°08'3 5.6
2018-Feb-16 09:30N 49°07' W 123°12'2 4.5
2018-Feb-16 08:59N 49°07' W 123°16'2 4.1
2018-Feb-16 08:30N 49°06' W 123°18'3 3.7
2018-Feb-16 07:49N 49°08' W 123°21'3 7.2
2018-Feb-16 07:25N 49°11' W 123°22'2 5.6
2018-Feb-16 07:00N 49°13' W 123°22'2 3.8
2018-Feb-16 06:28N 49°15' W 123°22'0 0.5
2018-Feb-16 05:58N 49°15' W 123°22'0 0.3
2018-Feb-16 05:29N 49°15' W 123°22'0 0.3
2018-Feb-16 04:54N 49°16' W 123°22'0 0.2
2018-Feb-16 04:29N 49°16' W 123°22'0 0.3
2018-Feb-16 04:00N 49°16' W 123°22'0 0.5
2018-Feb-16 03:29N 49°16' W 123°22'0 0.5
2018-Feb-16 03:00N 49°15' W 123°22'2 4.2
2018-Feb-16 02:30N 49°16' W 123°19'3 6.3
2018-Feb-16 01:58N 49°14' W 123°14'2 5.1
2018-Feb-16 01:30N 49°13' W 123°11'3 4.8
2018-Feb-16 00:58N 49°12' W 123°08'2 4.0
2018-Feb-16 00:30N 49°12' W 123°05'0 0.1
2018-Feb-16 00:00N 49°12' W 123°05'0 0.1
2018-Feb-15 23:30N 49°12' W 123°05'0 0.0
2018-Feb-15 23:00N 49°12' W 123°05'1 1.1
2018-Feb-15 22:30N 49°12' W 123°04'0 0.0
2018-Feb-15 21:59N 49°12' W 123°04'0 0.0
2018-Feb-15 21:30N 49°12' W 123°04'0 0.0
2018-Feb-15 21:00N 49°12' W 123°04'0 0.0
2018-Feb-15 20:30N 49°12' W 123°04'0 0.0
2018-Feb-15 20:00N 49°12' W 123°04'0 0.0
2018-Feb-15 19:30N 49°12' W 123°04'0 0.0
2018-Feb-15 19:00N 49°12' W 123°04'0 0.0
2018-Feb-15 18:30N 49°12' W 123°04'2 3.1
2018-Feb-15 18:00N 49°12' W 123°06'3 6.3
2018-Feb-15 17:30N 49°13' W 123°11'4 7.8
2018-Feb-15 17:00N 49°15' W 123°16'5 9.5
2018-Feb-15 16:30N 49°17' W 123°22'5 9.6
2018-Feb-15 15:59N 49°21' W 123°27'5 9.1
2018-Feb-15 15:28N 49°26' W 123°28'4 9.4
2018-Feb-15 15:00N 49°31' W 123°29'1 1.4
2018-Feb-15 14:30N 49°31' W 123°29'0 0.9
2018-Feb-15 13:59N 49°32' W 123°28'1 1.8
2018-Feb-15 13:30N 49°32' W 123°27'2 3.9
2018-Feb-15 12:57N 49°32' W 123°24'1 1.2
2018-Feb-15 11:52N 49°33' W 123°22'2 4.2
2018-Feb-15 11:30N 49°32' W 123°25'1 1.5
2018-Feb-15 10:59N 49°32' W 123°24'1 1.5
2018-Feb-15 10:02N 49°33' W 123°22'0 3.7
2018-Feb-15 09:59N 49°33' W 123°23'2 4.3
2018-Feb-15 09:29N 49°32' W 123°26'2 4.3
2018-Feb-15 09:00N 49°31' W 123°28'2 4.4
2018-Feb-15 08:30N 49°29' W 123°28'2 4.3
2018-Feb-15 08:00N 49°27' W 123°27'3 5.6
2018-Feb-15 07:30N 49°24' W 123°25'4 8.2
2018-Feb-15 07:00N 49°20' W 123°27'4 8.2
2018-Feb-15 06:30N 49°19' W 123°33'4 8.5
2018-Feb-15 06:00N 49°17' W 123°39'31 3.0
2018-Feb-14 19:50N 49°27' W 124°24'9 6.0
2018-Feb-14 18:19N 49°33' W 124°34'3 6.4
2018-Feb-14 17:55N 49°35' W 124°36'3 6.4
2018-Feb-14 17:30N 49°37' W 124°39'4 6.5
2018-Feb-14 16:51N 49°40' W 124°43'3 6.2
2018-Feb-14 16:24N 49°42' W 124°46'2 5.9
2018-Feb-14 16:00N 49°44' W 124°49'3 5.9
2018-Feb-14 15:30N 49°46' W 124°52'3 6.1
2018-Feb-14 15:00N 49°48' W 124°55'3 6.0
2018-Feb-14 14:30N 49°50' W 124°59'3 6.4
2018-Feb-14 14:00N 49°53' W 125°02'3 6.7
2018-Feb-14 13:30N 49°55' W 125°06'4 7.2
2018-Feb-14 13:00N 49°57' W 125°11'3 6.7
2018-Feb-14 12:30N 50°00' W 125°13'4 8.1
2018-Feb-14 12:00N 50°04' W 125°15'4 9.0
2018-Feb-14 11:30N 50°07' W 125°20'3 6.5
2018-Feb-14 11:00N 50°10' W 125°21'3 5.1
2018-Feb-14 10:30N 50°13' W 125°22'1 2.6
2018-Feb-14 09:59N 50°14' W 125°23'1 2.6
2018-Feb-14 09:29N 50°15' W 125°23'1 1.9
2018-Feb-14 09:00N 50°16' W 125°23'2 3.6
2018-Feb-14 08:30N 50°18' W 125°25'74 5.0
2018-Feb-13 17:47N 50°47' W 127°12'2 5.5
2018-Feb-13 17:20N 50°48' W 127°15'2 5.5
2018-Feb-13 16:59N 50°50' W 127°17'3 5.6
2018-Feb-13 16:30N 50°52' W 127°20'3 5.4
2018-Feb-13 15:59N 50°54' W 127°23'2 5.1
2018-Feb-13 15:30N 50°55' W 127°26'3 5.1
2018-Feb-13 15:00N 50°57' W 127°29'3 5.4
2018-Feb-13 14:30N 50°59' W 127°32'3 5.2
2018-Feb-13 14:00N 51°00' W 127°35'3 5.4
2018-Feb-13 13:30N 51°02' W 127°38'3 5.5
2018-Feb-13 13:00N 51°04' W 127°42'3 5.4
2018-Feb-13 12:30N 51°06' W 127°45'3 5.2
2018-Feb-13 12:00N 51°07' W 127°48'2 5.0
2018-Feb-13 11:30N 51°09' W 127°50'3 5.2
2018-Feb-13 11:00N 51°12' W 127°51'10 5.7
2018-Feb-13 09:20N 51°21' W 127°53'4 6.4
2018-Feb-13 08:38N 51°26' W 127°52'1 6.5
2018-Feb-13 08:29N 51°27' W 127°51'3 6.8
2018-Feb-13 07:59N 51°30' W 127°52'3 7.0
2018-Feb-13 07:30N 51°33' W 127°52'3 6.5
2018-Feb-13 07:00N 51°37' W 127°53'3 6.3
2018-Feb-13 06:30N 51°40' W 127°54'3 6.5
2018-Feb-13 06:00N 51°43' W 127°54'3 6.4
2018-Feb-13 05:30N 51°46' W 127°54'3 6.3
2018-Feb-13 05:00N 51°49' W 127°55'3 6.4
2018-Feb-13 04:30N 51°52' W 127°56'3 6.9
2018-Feb-13 04:00N 51°56' W 127°57'3 6.8
2018-Feb-13 03:30N 51°59' W 127°56'3 7.0
2018-Feb-13 03:00N 52°03' W 127°56'3 5.8
2018-Feb-13 02:30N 52°05' W 127°59'3 6.0
2018-Feb-13 02:00N 52°05' W 128°04'3 5.8
2018-Feb-13 01:30N 52°06' W 128°08'3 5.8
2018-Feb-13 01:00N 52°09' W 128°08'3 5.1
2018-Feb-13 00:24N 52°12' W 128°07'3 5.3
2018-Feb-12 23:50N 52°14' W 128°11'16 4.8
2018-Feb-12 20:29N 52°25' W 128°29'97 5.5
2018-Feb-12 02:49N 53°47' W 129°56'2 6.2
2018-Feb-12 02:29N 53°48' W 129°58'3 6.5
2018-Feb-12 02:00N 53°51' W 130°02'3 6.6
2018-Feb-12 01:30N 53°53' W 130°05'3 6.4
2018-Feb-12 01:00N 53°55' W 130°10'3 6.4
2018-Feb-12 00:30N 53°58' W 130°12'3 6.5
2018-Feb-12 00:00N 54°01' W 130°13'3 6.6
2018-Feb-11 23:29N 54°04' W 130°16'3 5.7
2018-Feb-11 23:00N 54°06' W 130°20'3 5.6
2018-Feb-11 22:30N 54°08' W 130°22'3 6.6
2018-Feb-11 22:00N 54°11' W 130°21'3 6.3
2018-Feb-11 21:30N 54°15' W 130°21'3 6.5
2018-Feb-11 21:00N 54°18' W 130°22'3 5.4
2018-Feb-11 20:30N 54°20' W 130°19'1 1.2
2018-Feb-11 20:00N 54°20' W 130°18'1 1.5
2018-Feb-11 19:30N 54°20' W 130°16'0 0.8
2018-Feb-11 19:01N 54°20' W 130°16'1 1.7
2018-Feb-11 18:30N 54°20' W 130°17'1 2.5
2018-Feb-11 18:00N 54°19' W 130°16'1 1.1
2018-Feb-11 17:30N 54°19' W 130°15'0 0.0
2018-Feb-11 17:00N 54°19' W 130°15'0 0.0
2018-Feb-11 16:30N 54°19' W 130°15'0 0.0
2018-Feb-11 16:00N 54°19' W 130°15'0 0.0
2018-Feb-11 15:30N 54°19' W 130°15'0 0.0
2018-Feb-11 15:00N 54°19' W 130°15'0 0.0
2018-Feb-11 14:30N 54°19' W 130°15'0 0.0
2018-Feb-11 14:00N 54°19' W 130°15'0 0.0
2018-Feb-11 13:30N 54°19' W 130°15'0 0.0
2018-Feb-11 13:00N 54°19' W 130°15'0 0.0
2018-Feb-11 12:30N 54°19' W 130°15'0 0.0
2018-Feb-11 12:00N 54°19' W 130°15'0 0.0
2018-Feb-11 11:30N 54°19' W 130°15'0 0.0
2018-Feb-11 11:00N 54°19' W 130°15'0 0.0
2018-Feb-11 10:30N 54°19' W 130°15'0 0.0
2018-Feb-11 10:00N 54°19' W 130°15'0 0.0
2018-Feb-11 09:30N 54°19' W 130°15'0 0.0
2018-Feb-11 09:00N 54°19' W 130°15'0 0.0
2018-Feb-11 08:30N 54°19' W 130°15'0 0.0
2018-Feb-11 08:00N 54°19' W 130°15'0 0.0
2018-Feb-11 07:31N 54°19' W 130°15'0 0.0
2018-Feb-11 07:00N 54°19' W 130°15'0 0.0
2018-Feb-11 06:30N 54°19' W 130°15'0 0.0
2018-Feb-11 06:00N 54°19' W 130°15'0 0.0
2018-Feb-11 05:30N 54°19' W 130°15'0 0.0
2018-Feb-11 05:00N 54°19' W 130°15'0 0.0
2018-Feb-11 04:30N 54°19' W 130°15'0 0.0
2018-Feb-11 04:00N 54°19' W 130°15'0 0.0
2018-Feb-11 03:30N 54°19' W 130°15'0 0.0
2018-Feb-11 02:59N 54°19' W 130°15'0 0.0
2018-Feb-11 02:30N 54°19' W 130°15'0 0.0
2018-Feb-11 02:00N 54°19' W 130°15'0 0.0
2018-Feb-11 01:30N 54°19' W 130°15'0 0.0
2018-Feb-11 01:00N 54°19' W 130°15'0 0.0
2018-Feb-11 00:30N 54°19' W 130°15'0 0.0
2018-Feb-11 00:00N 54°19' W 130°15'0 0.0
2018-Feb-10 23:31N 54°19' W 130°15'0 0.0
2018-Feb-10 23:00N 54°19' W 130°15'0 0.0
2018-Feb-10 22:30N 54°19' W 130°15'0 0.0
2018-Feb-10 21:59N 54°19' W 130°15'0 0.2
2018-Feb-10 21:30N 54°19' W 130°16'0 0.2
2018-Feb-10 21:00N 54°19' W 130°15'0 0.0
2018-Feb-10 20:30N 54°19' W 130°15'0 0.0
2018-Feb-10 20:00N 54°19' W 130°15'0 0.0
2018-Feb-10 19:30N 54°19' W 130°15'0 0.0
2018-Feb-10 19:00N 54°19' W 130°15'0 0.0
2018-Feb-10 18:30N 54°19' W 130°15'0 0.0
2018-Feb-10 18:00N 54°19' W 130°15'0 0.1
2018-Feb-10 17:30N 54°19' W 130°15'0 0.0
2018-Feb-10 17:00N 54°19' W 130°15'0 0.1
2018-Feb-10 16:30N 54°19' W 130°15'2 3.4
2018-Feb-10 16:00N 54°20' W 130°17'2 3.2
2018-Feb-10 15:30N 54°19' W 130°19'0 0.0
2018-Feb-10 15:00N 54°19' W 130°19'0 0.0
2018-Feb-10 14:30N 54°19' W 130°19'0 0.0
2018-Feb-10 14:00N 54°19' W 130°19'0 0.0
2018-Feb-10 13:31N 54°19' W 130°19'0 0.0
2018-Feb-10 13:00N 54°19' W 130°19'0 0.0
2018-Feb-10 12:30N 54°19' W 130°19'0 0.0
2018-Feb-10 12:00N 54°19' W 130°19'0 0.0
2018-Feb-10 11:30N 54°19' W 130°19'0 0.0
2018-Feb-10 11:00N 54°19' W 130°19'0 0.0
2018-Feb-10 10:30N 54°19' W 130°19'0 0.0
2018-Feb-10 10:00N 54°19' W 130°19'0 0.0
2018-Feb-10 09:30N 54°19' W 130°19'0 0.0
2018-Feb-10 09:00N 54°19' W 130°19'0 0.0
2018-Feb-10 08:30N 54°19' W 130°19'0 0.0
2018-Feb-10 08:00N 54°19' W 130°19'0 0.0
2018-Feb-10 07:30N 54°19' W 130°19'0 0.0
2018-Feb-10 07:00N 54°19' W 130°19'0 0.0
2018-Feb-10 06:31N 54°19' W 130°19'0 0.0
2018-Feb-10 06:00N 54°19' W 130°19'0 0.0
2018-Feb-10 05:30N 54°19' W 130°19'0 0.0
2018-Feb-10 05:00N 54°19' W 130°19'0 0.0
2018-Feb-10 04:30N 54°19' W 130°19'0 0.0
2018-Feb-10 04:00N 54°19' W 130°19'0 0.0
2018-Feb-10 03:30N 54°19' W 130°19'0 0.0
2018-Feb-10 03:00N 54°19' W 130°19'0 0.0
2018-Feb-10 02:30N 54°19' W 130°19'0 0.0
2018-Feb-10 02:00N 54°19' W 130°19'0 0.0
2018-Feb-10 01:30N 54°19' W 130°19'0 0.0
2018-Feb-10 01:00N 54°19' W 130°19'0 0.0
2018-Feb-10 00:30N 54°19' W 130°19'0 0.0
2018-Feb-10 00:00N 54°19' W 130°19'0 0.0
2018-Feb-09 23:30N 54°19' W 130°19'0 0.0
2018-Feb-09 23:00N 54°19' W 130°19'0 0.0
2018-Feb-09 22:46N 54°19' W 130°19'0 0.0
2018-Feb-09 22:30N 54°19' W 130°19'0 0.0
2018-Feb-09 20:30N 54°19' W 130°19'0 0.0
2018-Feb-09 19:30N 54°19' W 130°19'0 0.0
2018-Feb-09 19:01N 54°19' W 130°19'0 0.0
2018-Feb-09 17:30N 54°19' W 130°19'0 0.2
2018-Feb-09 17:00N 54°19' W 130°19'0 0.0
2018-Feb-09 16:00N 54°19' W 130°19'0 0.3
2018-Feb-09 15:30N 54°19' W 130°19'2 2.1
2018-Feb-09 14:30N 54°19' W 130°15'0 0.1
2018-Feb-09 14:00N 54°19' W 130°16'0 0.0
2018-Feb-09 13:30N 54°19' W 130°16'0 0.1
2018-Feb-09 13:00N 54°19' W 130°15'0 0.1
2018-Feb-09 12:30N 54°19' W 130°16'0 0.1
2018-Feb-09 12:00N 54°19' W 130°15'0 0.1
2018-Feb-09 11:30N 54°19' W 130°16'0 0.0
2018-Feb-09 10:00N 54°19' W 130°16'0 0.0
2018-Feb-09 09:30N 54°19' W 130°16'0 0.0
2018-Feb-09 09:00N 54°19' W 130°16'0 0.0
2018-Feb-09 08:30N 54°19' W 130°16'0 0.0
2018-Feb-09 08:00N 54°19' W 130°16'0 0.0
2018-Feb-09 07:30N 54°19' W 130°16'0 0.1
2018-Feb-09 07:00N 54°19' W 130°15'0 0.0
2018-Feb-09 06:30N 54°19' W 130°15'0 0.0
2018-Feb-09 05:30N 54°19' W 130°16'  
Track history (hours):
 
Tides and Currents Weather Stations Pressure Air Temp Water Temp Dewpoint Dewpoint Depression Visibility Wind Speed Wind Dir Waves Ship Positions

Dd Catherwood

Last reported at 2018-Feb-19 05:01 UTC. Time now 2018-Feb-19 10:07 UTC.
Position N 53°47' W 129°56'.

Length 21 m; draft 3.5 m.

Type: Towing. MMSI: 316006155.

Date/timePositionNaut miles runAvg speedWind from/ knotsBaromVisibWave heightAir tempDewpointWater temp
2018-Feb-19 05:01N 53°47' W 129°56'1 7.4
2018-Feb-19 04:53N 53°48' W 129°57'3 7.2
2018-Feb-19 04:30N 53°50' W 130°01'4 7.1
2018-Feb-19 04:01N 53°52' W 130°05'3 6.9
2018-Feb-19 03:30N 53°54' W 130°09'3 6.5
2018-Feb-19 03:00N 53°57' W 130°12'4 7.2
2018-Feb-19 02:30N 54°01' W 130°13'4 7.1
2018-Feb-19 02:01N 54°04' W 130°16'3 6.7
2018-Feb-19 01:31N 54°06' W 130°21'3 6.2
2018-Feb-19 01:00N 54°09' W 130°22'4 6.9
2018-Feb-19 00:29N 54°12' W 130°21'3 6.9
2018-Feb-19 00:00N 54°16' W 130°21'3 5.8
2018-Feb-18 23:27N 54°19' W 130°22'0 0.5
2018-Feb-18 23:00N 54°19' W 130°22'0 0.1
2018-Feb-18 22:23N 54°19' W 130°22'1 3.4
2018-Feb-18 22:00N 54°19' W 130°20'0 0.5
2018-Feb-18 21:31N 54°19' W 130°19'0 0.0
2018-Feb-18 21:00N 54°19' W 130°19'0 0.0
2018-Feb-18 20:31N 54°19' W 130°19'0 0.0
2018-Feb-18 20:00N 54°19' W 130°19'0 0.0
2018-Feb-18 19:30N 54°19' W 130°19'0 0.0
2018-Feb-18 19:00N 54°19' W 130°19'2 3.2
2018-Feb-18 18:31N 54°19' W 130°22'0 0.0
2018-Feb-18 18:00N 54°19' W 130°22'0 0.0
2018-Feb-18 17:30N 54°19' W 130°22'0 0.0
2018-Feb-18 17:01N 54°19' W 130°22'0 0.7
2018-Feb-18 16:30N 54°19' W 130°22'4 8.7
2018-Feb-18 16:00N 54°14' W 130°21'5 9.3
2018-Feb-18 15:30N 54°10' W 130°21'4 8.8
2018-Feb-18 15:00N 54°05' W 130°20'5 9.7
2018-Feb-18 14:30N 54°02' W 130°14'5 9.6
2018-Feb-18 14:00N 53°57' W 130°12'4 8.8
2018-Feb-18 13:30N 53°54' W 130°07'5 9.5
2018-Feb-18 13:00N 53°50' W 130°01'5 9.6
2018-Feb-18 12:30N 53°47' W 129°56'95 8.7
2018-Feb-18 01:33N 52°28' W 128°28'1 9.0
2018-Feb-18 01:30N 52°27' W 128°28'23 7.6
2018-Feb-17 22:32N 52°08' W 128°08'14 8.2
2018-Feb-17 20:47N 51°56' W 127°56'310.2
2018-Feb-17 20:28N 51°53' W 127°57'510.1
2018-Feb-17 20:01N 51°48' W 127°57'510.2
2018-Feb-17 19:31N 51°43' W 127°56'510.0
2018-Feb-17 19:00N 51°38' W 127°54'510.0
2018-Feb-17 18:31N 51°33' W 127°51'5 9.6
2018-Feb-17 18:00N 51°29' W 127°51'19 9.9
2018-Feb-17 16:03N 51°09' W 127°50'210.9
2018-Feb-17 15:54N 51°08' W 127°49'511.1
2018-Feb-17 15:30N 51°05' W 127°43'611.2
2018-Feb-17 15:00N 51°01' W 127°37'611.1
2018-Feb-17 14:30N 50°58' W 127°30'612.0
2018-Feb-17 14:00N 50°54' W 127°23'611.3
2018-Feb-17 13:30N 50°50' W 127°16'611.0
2018-Feb-17 12:59N 50°46' W 127°09'71 9.9
2018-Feb-17 05:48N 50°20' W 125°25'410.2
2018-Feb-17 05:27N 50°16' W 125°24'512.0
2018-Feb-17 05:01N 50°11' W 125°22'612.7
2018-Feb-17 04:30N 50°06' W 125°17'714.8
2018-Feb-17 04:00N 49°59' W 125°11'611.1
2018-Feb-17 03:29N 49°55' W 125°05'510.9
2018-Feb-17 03:00N 49°52' W 124°58'510.8
2018-Feb-17 02:30N 49°49' W 124°52'510.4
2018-Feb-17 02:00N 49°46' W 124°45'510.5
2018-Feb-17 01:30N 49°42' W 124°39'4510.5
2018-Feb-16 21:16N 49°21' W 123°39'310.8
2018-Feb-16 21:00N 49°20' W 123°35'510.5
2018-Feb-16 20:30N 49°18' W 123°27'510.5
2018-Feb-16 20:00N 49°16' W 123°20'510.0
2018-Feb-16 19:30N 49°14' W 123°13'5 9.2
2018-Feb-16 19:00N 49°12' W 123°06'2 2.2
2018-Feb-16 18:14N 49°12' W 123°04'0 0.0
2018-Feb-16 17:58N 49°12' W 123°04'0 0.0
2018-Feb-16 17:16N 49°12' W 123°04'0 0.0
2018-Feb-16 16:44N 49°12' W 123°04'0 0.0
2018-Feb-16 16:25N 49°12' W 123°04'0 0.0
2018-Feb-16 16:00N 49°12' W 123°04'0 0.0
2018-Feb-16 15:29N 49°12' W 123°04'0 0.0
2018-Feb-16 15:00N 49°12' W 123°04'0 0.0
2018-Feb-16 14:30N 49°12' W 123°04'0 0.0
2018-Feb-16 14:00N 49°12' W 123°04'0 0.0
2018-Feb-16 13:30N 49°12' W 123°04'2 4.5
2018-Feb-16 13:00N 49°12' W 123°01'2 3.8
2018-Feb-16 12:30N 49°11' W 122°58'2 3.8
2018-Feb-16 12:00N 49°12' W 122°55'1 1.9
2018-Feb-16 11:30N 49°11' W 122°55'3 6.1
2018-Feb-16 11:00N 49°09' W 122°59'3 6.5
2018-Feb-16 10:30N 49°08' W 123°04'3 6.6
2018-Feb-16 10:00N 49°07' W 123°08'3 5.6
2018-Feb-16 09:30N 49°07' W 123°12'2 4.5
2018-Feb-16 08:59N 49°07' W 123°16'2 4.1
2018-Feb-16 08:30N 49°06' W 123°18'3 3.7
2018-Feb-16 07:49N 49°08' W 123°21'3 7.2
2018-Feb-16 07:25N 49°11' W 123°22'2 5.6
2018-Feb-16 07:00N 49°13' W 123°22'2 3.8
2018-Feb-16 06:28N 49°15' W 123°22'0 0.5
2018-Feb-16 05:58N 49°15' W 123°22'0 0.3
2018-Feb-16 05:29N 49°15' W 123°22'0 0.3
2018-Feb-16 04:54N 49°16' W 123°22'0 0.2
2018-Feb-16 04:29N 49°16' W 123°22'0 0.3
2018-Feb-16 04:00N 49°16' W 123°22'0 0.5
2018-Feb-16 03:29N 49°16' W 123°22'0 0.5
2018-Feb-16 03:00N 49°15' W 123°22'2 4.2
2018-Feb-16 02:30N 49°16' W 123°19'3 6.3
2018-Feb-16 01:58N 49°14' W 123°14'2 5.1
2018-Feb-16 01:30N 49°13' W 123°11'3 4.8
2018-Feb-16 00:58N 49°12' W 123°08'2 4.0
2018-Feb-16 00:30N 49°12' W 123°05'0 0.1
2018-Feb-16 00:00N 49°12' W 123°05'0 0.1
2018-Feb-15 23:30N 49°12' W 123°05'0 0.0
2018-Feb-15 23:00N 49°12' W 123°05'1 1.1
2018-Feb-15 22:30N 49°12' W 123°04'0 0.0
2018-Feb-15 21:59N 49°12' W 123°04'0 0.0
2018-Feb-15 21:30N 49°12' W 123°04'0 0.0
2018-Feb-15 21:00N 49°12' W 123°04'0 0.0
2018-Feb-15 20:30N 49°12' W 123°04'0 0.0
2018-Feb-15 20:00N 49°12' W 123°04'0 0.0
2018-Feb-15 19:30N 49°12' W 123°04'0 0.0
2018-Feb-15 19:00N 49°12' W 123°04'0 0.0
2018-Feb-15 18:30N 49°12' W 123°04'2 3.1
2018-Feb-15 18:00N 49°12' W 123°06'3 6.3
2018-Feb-15 17:30N 49°13' W 123°11'4 7.8
2018-Feb-15 17:00N 49°15' W 123°16'5 9.5
2018-Feb-15 16:30N 49°17' W 123°22'5 9.6
2018-Feb-15 15:59N 49°21' W 123°27'5 9.1
2018-Feb-15 15:28N 49°26' W 123°28'4 9.4
2018-Feb-15 15:00N 49°31' W 123°29'1 1.4
2018-Feb-15 14:30N 49°31' W 123°29'0 0.9
2018-Feb-15 13:59N 49°32' W 123°28'1 1.8
2018-Feb-15 13:30N 49°32' W 123°27'2 3.9
2018-Feb-15 12:57N 49°32' W 123°24'1 1.2
2018-Feb-15 11:52N 49°33' W 123°22'2 4.2
2018-Feb-15 11:30N 49°32' W 123°25'1 1.5
2018-Feb-15 10:59N 49°32' W 123°24'1 1.5
2018-Feb-15 10:02N 49°33' W 123°22'0 3.7
2018-Feb-15 09:59N 49°33' W 123°23'2 4.3
2018-Feb-15 09:29N 49°32' W 123°26'2 4.3
2018-Feb-15 09:00N 49°31' W 123°28'2 4.4
2018-Feb-15 08:30N 49°29' W 123°28'2 4.3
2018-Feb-15 08:00N 49°27' W 123°27'3 5.6
2018-Feb-15 07:30N 49°24' W 123°25'4 8.2
2018-Feb-15 07:00N 49°20' W 123°27'4 8.2
2018-Feb-15 06:30N 49°19' W 123°33'4 8.5
2018-Feb-15 06:00N 49°17' W 123°39'31 3.0
2018-Feb-14 19:50N 49°27' W 124°24'9 6.0
2018-Feb-14 18:19N 49°33' W 124°34'3 6.4
2018-Feb-14 17:55N 49°35' W 124°36'3 6.4
2018-Feb-14 17:30N 49°37' W 124°39'4 6.5
2018-Feb-14 16:51N 49°40' W 124°43'3 6.2
2018-Feb-14 16:24N 49°42' W 124°46'2 5.9
2018-Feb-14 16:00N 49°44' W 124°49'3 5.9
2018-Feb-14 15:30N 49°46' W 124°52'3 6.1
2018-Feb-14 15:00N 49°48' W 124°55'3 6.0
2018-Feb-14 14:30N 49°50' W 124°59'3 6.4
2018-Feb-14 14:00N 49°53' W 125°02'3 6.7
2018-Feb-14 13:30N 49°55' W 125°06'4 7.2
2018-Feb-14 13:00N 49°57' W 125°11'3 6.7
2018-Feb-14 12:30N 50°00' W 125°13'4 8.1
2018-Feb-14 12:00N 50°04' W 125°15'4 9.0
2018-Feb-14 11:30N 50°07' W 125°20'3 6.5
2018-Feb-14 11:00N 50°10' W 125°21'3 5.1
2018-Feb-14 10:30N 50°13' W 125°22'1 2.6
2018-Feb-14 09:59N 50°14' W 125°23'1 2.6
2018-Feb-14 09:29N 50°15' W 125°23'1 1.9
2018-Feb-14 09:00N 50°16' W 125°23'2 3.6
2018-Feb-14 08:30N 50°18' W 125°25'74 5.0
2018-Feb-13 17:47N 50°47' W 127°12'2 5.5
2018-Feb-13 17:20N 50°48' W 127°15'2 5.5
2018-Feb-13 16:59N 50°50' W 127°17'3 5.6
2018-Feb-13 16:30N 50°52' W 127°20'3 5.4
2018-Feb-13 15:59N 50°54' W 127°23'2 5.1
2018-Feb-13 15:30N 50°55' W 127°26'3 5.1
2018-Feb-13 15:00N 50°57' W 127°29'3 5.4
2018-Feb-13 14:30N 50°59' W 127°32'3 5.2
2018-Feb-13 14:00N 51°00' W 127°35'3 5.4
2018-Feb-13 13:30N 51°02' W 127°38'3 5.5
2018-Feb-13 13:00N 51°04' W 127°42'3 5.4
2018-Feb-13 12:30N 51°06' W 127°45'3 5.2
2018-Feb-13 12:00N 51°07' W 127°48'2 5.0
2018-Feb-13 11:30N 51°09' W 127°50'3 5.2
2018-Feb-13 11:00N 51°12' W 127°51'10 5.7
2018-Feb-13 09:20N 51°21' W 127°53'4 6.4
2018-Feb-13 08:38N 51°26' W 127°52'1 6.5
2018-Feb-13 08:29N 51°27' W 127°51'3 6.8
2018-Feb-13 07:59N 51°30' W 127°52'3 7.0
2018-Feb-13 07:30N 51°33' W 127°52'3 6.5
2018-Feb-13 07:00N 51°37' W 127°53'3 6.3
2018-Feb-13 06:30N 51°40' W 127°54'3 6.5
2018-Feb-13 06:00N 51°43' W 127°54'3 6.4
2018-Feb-13 05:30N 51°46' W 127°54'3 6.3
2018-Feb-13 05:00N 51°49' W 127°55'3 6.4
2018-Feb-13 04:30N 51°52' W 127°56'3 6.9
2018-Feb-13 04:00N 51°56' W 127°57'3 6.8
2018-Feb-13 03:30N 51°59' W 127°56'3 7.0
2018-Feb-13 03:00N 52°03' W 127°56'3 5.8
2018-Feb-13 02:30N 52°05' W 127°59'3 6.0
2018-Feb-13 02:00N 52°05' W 128°04'3 5.8
2018-Feb-13 01:30N 52°06' W 128°08'3 5.8
2018-Feb-13 01:00N 52°09' W 128°08'3 5.1
2018-Feb-13 00:24N 52°12' W 128°07'3 5.3
2018-Feb-12 23:50N 52°14' W 128°11'16 4.8
2018-Feb-12 20:29N 52°25' W 128°29'97 5.5
2018-Feb-12 02:49N 53°47' W 129°56'2 6.2
2018-Feb-12 02:29N 53°48' W 129°58'3 6.5
2018-Feb-12 02:00N 53°51' W 130°02'3 6.6
2018-Feb-12 01:30N 53°53' W 130°05'3 6.4
2018-Feb-12 01:00N 53°55' W 130°10'3 6.4
2018-Feb-12 00:30N 53°58' W 130°12'3 6.5
2018-Feb-12 00:00N 54°01' W 130°13'3 6.6
2018-Feb-11 23:29N 54°04' W 130°16'3 5.7
2018-Feb-11 23:00N 54°06' W 130°20'3 5.6
2018-Feb-11 22:30N 54°08' W 130°22'3 6.6
2018-Feb-11 22:00N 54°11' W 130°21'3 6.3
2018-Feb-11 21:30N 54°15' W 130°21'3 6.5
2018-Feb-11 21:00N 54°18' W 130°22'3 5.4
2018-Feb-11 20:30N 54°20' W 130°19'1 1.2
2018-Feb-11 20:00N 54°20' W 130°18'1 1.5
2018-Feb-11 19:30N 54°20' W 130°16'0 0.8
2018-Feb-11 19:01N 54°20' W 130°16'1 1.7
2018-Feb-11 18:30N 54°20' W 130°17'1 2.5
2018-Feb-11 18:00N 54°19' W 130°16'1 1.1
2018-Feb-11 17:30N 54°19' W 130°15'0 0.0
2018-Feb-11 17:00N 54°19' W 130°15'0 0.0
2018-Feb-11 16:30N 54°19' W 130°15'0 0.0
2018-Feb-11 16:00N 54°19' W 130°15'0 0.0
2018-Feb-11 15:30N 54°19' W 130°15'0 0.0
2018-Feb-11 15:00N 54°19' W 130°15'0 0.0
2018-Feb-11 14:30N 54°19' W 130°15'0 0.0
2018-Feb-11 14:00N 54°19' W 130°15'0 0.0
2018-Feb-11 13:30N 54°19' W 130°15'0 0.0
2018-Feb-11 13:00N 54°19' W 130°15'0 0.0
2018-Feb-11 12:30N 54°19' W 130°15'0 0.0
2018-Feb-11 12:00N 54°19' W 130°15'0 0.0
2018-Feb-11 11:30N 54°19' W 130°15'0 0.0
2018-Feb-11 11:00N 54°19' W 130°15'0 0.0
2018-Feb-11 10:30N 54°19' W 130°15'0 0.0
2018-Feb-11 10:00N 54°19' W 130°15'0 0.0
2018-Feb-11 09:30N 54°19' W 130°15'0 0.0
2018-Feb-11 09:00N 54°19' W 130°15'0 0.0
2018-Feb-11 08:30N 54°19' W 130°15'0 0.0
2018-Feb-11 08:00N 54°19' W 130°15'0 0.0
2018-Feb-11 07:31N 54°19' W 130°15'0 0.0
2018-Feb-11 07:00N 54°19' W 130°15'0 0.0
2018-Feb-11 06:30N 54°19' W 130°15'0 0.0
2018-Feb-11 06:00N 54°19' W 130°15'0 0.0
2018-Feb-11 05:30N 54°19' W 130°15'0 0.0
2018-Feb-11 05:00N 54°19' W 130°15'0 0.0
2018-Feb-11 04:30N 54°19' W 130°15'0 0.0
2018-Feb-11 04:00N 54°19' W 130°15'0 0.0
2018-Feb-11 03:30N 54°19' W 130°15'0 0.0
2018-Feb-11 02:59N 54°19' W 130°15'0 0.0
2018-Feb-11 02:30N 54°19' W 130°15'0 0.0
2018-Feb-11 02:00N 54°19' W 130°15'0 0.0
2018-Feb-11 01:30N 54°19' W 130°15'0 0.0
2018-Feb-11 01:00N 54°19' W 130°15'0 0.0
2018-Feb-11 00:30N 54°19' W 130°15'0 0.0
2018-Feb-11 00:00N 54°19' W 130°15'0 0.0
2018-Feb-10 23:31N 54°19' W 130°15'0 0.0
2018-Feb-10 23:00N 54°19' W 130°15'0 0.0
2018-Feb-10 22:30N 54°19' W 130°15'0 0.0
2018-Feb-10 21:59N 54°19' W 130°15'0 0.2
2018-Feb-10 21:30N 54°19' W 130°16'0 0.2
2018-Feb-10 21:00N 54°19' W 130°15'0 0.0
2018-Feb-10 20:30N 54°19' W 130°15'0 0.0
2018-Feb-10 20:00N 54°19' W 130°15'0 0.0
2018-Feb-10 19:30N 54°19' W 130°15'0 0.0
2018-Feb-10 19:00N 54°19' W 130°15'0 0.0
2018-Feb-10 18:30N 54°19' W 130°15'0 0.0
2018-Feb-10 18:00N 54°19' W 130°15'0 0.1
2018-Feb-10 17:30N 54°19' W 130°15'0 0.0
2018-Feb-10 17:00N 54°19' W 130°15'0 0.1
2018-Feb-10 16:30N 54°19' W 130°15'2 3.4
2018-Feb-10 16:00N 54°20' W 130°17'2 3.2
2018-Feb-10 15:30N 54°19' W 130°19'0 0.0
2018-Feb-10 15:00N 54°19' W 130°19'0 0.0
2018-Feb-10 14:30N 54°19' W 130°19'0 0.0
2018-Feb-10 14:00N 54°19' W 130°19'0 0.0
2018-Feb-10 13:31N 54°19' W 130°19'0 0.0
2018-Feb-10 13:00N 54°19' W 130°19'0 0.0
2018-Feb-10 12:30N 54°19' W 130°19'0 0.0
2018-Feb-10 12:00N 54°19' W 130°19'0 0.0
2018-Feb-10 11:30N 54°19' W 130°19'0 0.0
2018-Feb-10 11:00N 54°19' W 130°19'0 0.0
2018-Feb-10 10:30N 54°19' W 130°19'0 0.0
2018-Feb-10 10:00N 54°19' W 130°19'0 0.0
2018-Feb-10 09:30N 54°19' W 130°19'0 0.0
2018-Feb-10 09:00N 54°19' W 130°19'0 0.0
2018-Feb-10 08:30N 54°19' W 130°19'0 0.0
2018-Feb-10 08:00N 54°19' W 130°19'0 0.0
2018-Feb-10 07:30N 54°19' W 130°19'0 0.0
2018-Feb-10 07:00N 54°19' W 130°19'0 0.0
2018-Feb-10 06:31N 54°19' W 130°19'0 0.0
2018-Feb-10 06:00N 54°19' W 130°19'0 0.0
2018-Feb-10 05:30N 54°19' W 130°19'0 0.0
2018-Feb-10 05:00N 54°19' W 130°19'0 0.0
2018-Feb-10 04:30N 54°19' W 130°19'0 0.0
2018-Feb-10 04:00N 54°19' W 130°19'0 0.0
2018-Feb-10 03:30N 54°19' W 130°19'0 0.0
2018-Feb-10 03:00N 54°19' W 130°19'0 0.0
2018-Feb-10 02:30N 54°19' W 130°19'0 0.0
2018-Feb-10 02:00N 54°19' W 130°19'0 0.0
2018-Feb-10 01:30N 54°19' W 130°19'0 0.0
2018-Feb-10 01:00N 54°19' W 130°19'0 0.0
2018-Feb-10 00:30N 54°19' W 130°19'0 0.0
2018-Feb-10 00:00N 54°19' W 130°19'0 0.0
2018-Feb-09 23:30N 54°19' W 130°19'0 0.0
2018-Feb-09 23:00N 54°19' W 130°19'0 0.0
2018-Feb-09 22:46N 54°19' W 130°19'0 0.0
2018-Feb-09 22:30N 54°19' W 130°19'0 0.0
2018-Feb-09 20:30N 54°19' W 130°19'0 0.0
2018-Feb-09 19:30N 54°19' W 130°19'0 0.0
2018-Feb-09 19:01N 54°19' W 130°19'0 0.0
2018-Feb-09 17:30N 54°19' W 130°19'0 0.2
2018-Feb-09 17:00N 54°19' W 130°19'0 0.0
2018-Feb-09 16:00N 54°19' W 130°19'0 0.3
2018-Feb-09 15:30N 54°19' W 130°19'2 2.1
2018-Feb-09 14:30N 54°19' W 130°15'0 0.1
2018-Feb-09 14:00N 54°19' W 130°16'0 0.0
2018-Feb-09 13:30N 54°19' W 130°16'0 0.1
2018-Feb-09 13:00N 54°19' W 130°15'0 0.1
2018-Feb-09 12:30N 54°19' W 130°16'0 0.1
2018-Feb-09 12:00N 54°19' W 130°15'0 0.1
2018-Feb-09 11:30N 54°19' W 130°16'0 0.0
2018-Feb-09 10:00N 54°19' W 130°16'0 0.0
2018-Feb-09 09:30N 54°19' W 130°16'0 0.0
2018-Feb-09 09:00N 54°19' W 130°16'0 0.0
2018-Feb-09 08:30N 54°19' W 130°16'0 0.0
2018-Feb-09 08:00N 54°19' W 130°16'0 0.0
2018-Feb-09 07:30N 54°19' W 130°16'0 0.1
2018-Feb-09 07:00N 54°19' W 130°15'0 0.0
2018-Feb-09 06:30N 54°19' W 130°15'0 0.0
2018-Feb-09 05:30N 54°19' W 130°16'  

Dump ship's entire track history